createdAt,value
2018-07-03T00:01:48.935Z,0.90
2018-07-03T00:03:54.007Z,1.10
2018-07-03T00:05:58.113Z,0.80
2018-07-03T00:08:05.988Z,0.70
2018-07-03T00:10:13.240Z,0.80
2018-07-03T00:12:19.422Z,0.50
2018-07-03T00:14:23.781Z,0.70
2018-07-03T00:16:33.404Z,0.70
2018-07-03T00:18:39.925Z,0.83
2018-07-03T00:20:44.812Z,0.70
2018-07-03T00:22:51.001Z,0.90
2018-07-03T00:24:56.038Z,0.80
2018-07-03T00:27:00.121Z,0.97
2018-07-03T00:29:04.233Z,1.00
2018-07-03T00:31:08.860Z,0.83
2018-07-03T00:33:13.616Z,0.80
2018-07-03T00:35:18.133Z,0.70
2018-07-03T00:37:22.659Z,0.70
2018-07-03T00:39:28.434Z,0.70
2018-07-03T00:41:34.246Z,0.90
2018-07-03T00:43:38.338Z,0.97
2018-07-03T00:45:42.434Z,1.13
2018-07-03T00:47:48.216Z,0.80
2018-07-03T00:49:52.803Z,0.80
2018-07-03T00:51:57.812Z,0.90
2018-07-03T00:54:01.781Z,0.80
2018-07-03T00:56:06.012Z,0.83
2018-07-03T00:58:13.560Z,0.70
2018-07-03T01:00:28.473Z,0.70
2018-07-03T01:02:32.446Z,0.80
2018-07-03T01:04:37.170Z,0.60
2018-07-03T01:06:42.558Z,0.77
2018-07-03T01:08:47.388Z,0.70
2018-07-03T01:10:52.345Z,0.90
2018-07-03T01:13:00.664Z,0.93
2018-07-03T01:15:06.362Z,0.77
2018-07-03T01:17:11.084Z,0.90
2018-07-03T01:19:15.885Z,0.90
2018-07-03T01:21:20.218Z,0.90
2018-07-03T01:23:24.677Z,0.90
2018-07-03T01:25:30.038Z,0.70
2018-07-03T01:27:34.208Z,0.80
2018-07-03T01:29:38.273Z,0.70
2018-07-03T01:31:43.402Z,1.03
2018-07-03T01:33:47.444Z,0.80
2018-07-03T01:35:53.462Z,0.90
2018-07-03T01:37:58.826Z,0.77
2018-07-03T01:40:02.897Z,0.80
2018-07-03T01:42:07.440Z,0.93
2018-07-03T01:44:11.748Z,0.70
2018-07-03T01:46:15.764Z,0.70
2018-07-03T01:48:19.763Z,0.90
2018-07-03T01:50:24.269Z,0.80
2018-07-03T01:52:28.375Z,0.70
2018-07-03T01:54:32.421Z,0.80
2018-07-03T01:56:36.757Z,1.00
2018-07-03T01:58:40.407Z,0.73
2018-07-03T02:00:44.422Z,0.90
2018-07-03T02:02:49.809Z,0.70
2018-07-03T02:04:53.784Z,0.57
2018-07-03T02:06:58.487Z,0.90
2018-07-03T02:09:06.250Z,0.87
2018-07-03T02:11:10.241Z,0.80
2018-07-03T02:13:14.264Z,0.70
2018-07-03T02:15:17.812Z,0.73
2018-07-03T02:17:21.880Z,0.90
2018-07-03T02:19:25.925Z,0.87
2018-07-03T02:21:30.346Z,1.10
2018-07-03T02:23:34.580Z,0.80
2018-07-03T02:25:39.422Z,1.03
2018-07-03T02:27:47.080Z,1.00
2018-07-03T02:29:51.120Z,0.77
2018-07-03T02:31:55.420Z,1.20
2018-07-03T02:34:02.599Z,0.80
2018-07-03T02:36:06.930Z,0.80
2018-07-03T02:38:11.128Z,0.90
2018-07-03T02:40:15.797Z,0.80
2018-07-03T02:42:19.816Z,1.20
2018-07-03T02:44:23.915Z,0.87
2018-07-03T02:46:28.263Z,1.00
2018-07-03T02:48:32.289Z,1.20
2018-07-03T02:50:36.343Z,0.87
2018-07-03T02:52:40.287Z,1.20
2018-07-03T02:54:44.253Z,1.10
2018-07-03T02:56:48.589Z,1.20
2018-07-03T02:58:54.149Z,1.23
2018-07-03T03:00:58.148Z,1.00
2018-07-03T03:03:02.170Z,1.37
2018-07-03T03:05:06.219Z,1.30
2018-07-03T03:07:10.251Z,0.87
2018-07-03T03:09:14.291Z,1.10
2018-07-03T03:11:21.433Z,1.17
2018-07-03T03:13:26.264Z,1.07
2018-07-03T03:15:30.396Z,0.90
2018-07-03T03:17:35.340Z,1.23
2018-07-03T03:19:39.459Z,0.90
2018-07-03T03:21:44.061Z,1.10
2018-07-03T03:23:48.494Z,1.00
2018-07-03T03:25:52.479Z,1.13
2018-07-03T03:27:56.568Z,1.00
2018-07-03T03:30:00.535Z,0.80
2018-07-03T03:32:04.575Z,1.43
2018-07-03T03:34:09.249Z,1.00
2018-07-03T03:36:13.324Z,1.00
2018-07-03T03:40:56.467Z,1.23
2018-07-03T03:43:01.364Z,0.90
2018-07-03T03:45:08.085Z,0.90
2018-07-03T03:47:13.528Z,0.97
2018-07-03T03:49:17.620Z,1.10
2018-07-03T03:51:21.152Z,1.10
2018-07-03T03:53:25.368Z,1.30
2018-07-03T03:55:29.326Z,1.17
2018-07-03T03:57:33.558Z,0.90
2018-07-03T03:59:38.996Z,0.90
2018-07-03T04:01:44.629Z,1.20
2018-07-03T04:03:48.692Z,1.03
2018-07-03T04:05:54.326Z,1.20
2018-07-03T04:07:58.400Z,1.00
2018-07-03T04:10:02.489Z,1.03
2018-07-03T04:12:07.945Z,1.23
2018-07-03T04:14:11.859Z,1.00
2018-07-03T04:16:16.485Z,0.83
2018-07-03T04:18:25.912Z,1.10
2018-07-03T04:20:29.820Z,1.33
2018-07-03T04:22:33.770Z,1.27
2018-07-03T04:24:41.211Z,1.20
2018-07-03T04:26:45.234Z,0.90
2018-07-03T04:28:49.310Z,1.23
2018-07-03T04:30:53.729Z,1.70
2018-07-03T04:32:57.754Z,1.27
2018-07-03T04:35:02.321Z,1.87
2018-07-03T04:37:07.341Z,1.83
2018-07-03T04:39:13.817Z,2.00
2018-07-03T04:41:17.988Z,1.73
2018-07-03T04:43:22.112Z,1.83
2018-07-03T04:45:25.640Z,2.00
2018-07-03T04:47:29.733Z,1.60
2018-07-03T04:49:34.194Z,1.93
2018-07-03T04:51:38.157Z,1.63
2018-07-03T04:53:42.180Z,1.87
2018-07-03T04:55:47.517Z,1.77
2018-07-03T04:57:53.569Z,1.40
2018-07-03T04:59:57.496Z,1.53
2018-07-03T05:02:02.013Z,1.70
2018-07-03T05:04:06.539Z,2.00
2018-07-03T05:06:10.604Z,1.90
2018-07-03T05:08:15.125Z,2.10
2018-07-03T05:10:19.766Z,2.03
2018-07-03T05:12:23.789Z,1.73
2018-07-03T05:14:30.340Z,1.90
2018-07-03T05:16:34.373Z,1.40
2018-07-03T05:18:38.422Z,2.27
2018-07-03T05:20:43.162Z,2.07
2018-07-03T05:22:49.760Z,1.87
2018-07-03T05:24:53.749Z,1.70
2018-07-03T05:26:59.430Z,2.03
2018-07-03T05:29:04.813Z,1.53
2018-07-03T05:31:08.785Z,1.63
2018-07-03T05:33:13.225Z,2.07
2018-07-03T05:35:18.301Z,2.03
2018-07-03T05:37:23.820Z,2.50
2018-07-03T05:39:28.441Z,2.03
2018-07-03T05:41:40.602Z,2.00
2018-07-03T05:43:50.548Z,2.10
2018-07-03T05:45:55.030Z,2.43
2018-07-03T05:47:59.662Z,2.63
2018-07-03T05:50:05.467Z,2.37
2018-07-03T05:52:09.813Z,2.43
2018-07-03T05:54:13.796Z,3.10
2018-07-03T05:56:17.822Z,2.27
2018-07-03T05:58:24.097Z,2.23
2018-07-03T06:00:30.344Z,1.77
2018-07-03T06:02:35.474Z,1.50
2018-07-03T06:04:46.292Z,1.27
2018-07-03T06:06:51.998Z,1.20
2018-07-03T06:08:55.982Z,1.17
2018-07-03T06:16:54.785Z,1.00
2018-07-03T06:18:58.857Z,1.47
2018-07-03T06:21:03.124Z,1.43
2018-07-03T06:23:10.073Z,1.40
2018-07-03T06:25:16.077Z,1.23
2018-07-03T06:27:37.273Z,1.10
2018-07-03T06:29:49.416Z,1.23
2018-07-03T06:31:53.487Z,1.27
2018-07-03T06:36:22.897Z,1.10
2018-07-03T06:38:36.697Z,1.00
2018-07-03T06:40:41.504Z,1.13
2018-07-03T06:42:56.512Z,0.93
2018-07-03T06:45:04.835Z,1.03
2018-07-03T06:47:13.418Z,1.20
2018-07-03T06:49:18.416Z,1.30
2018-07-03T06:51:29.659Z,1.17
2018-07-03T06:53:33.716Z,0.80
2018-07-03T06:55:50.979Z,1.00
2018-07-03T06:57:57.603Z,1.27
2018-07-03T07:00:06.391Z,0.93
2018-07-03T07:02:15.300Z,0.97
2018-07-03T07:04:33.621Z,1.17
2018-07-03T07:06:45.710Z,1.10
2018-07-03T07:09:05.506Z,1.00
2018-07-03T07:11:12.959Z,1.00
2018-07-03T07:13:16.952Z,1.00
2018-07-03T07:15:21.238Z,1.20
2018-07-03T07:17:25.214Z,1.10
2018-07-03T07:19:29.249Z,1.30
2018-07-03T07:21:33.457Z,1.10
2018-07-03T07:23:43.703Z,0.97
2018-07-03T07:25:48.101Z,0.80
2018-07-03T07:27:52.732Z,0.93
2018-07-03T07:29:56.818Z,1.40
2018-07-03T07:32:03.224Z,1.00
2018-07-03T07:36:16.452Z,0.90
2018-07-03T07:38:22.204Z,0.90
2018-07-03T07:40:26.539Z,1.20
2018-07-03T07:42:30.579Z,1.20
2018-07-03T07:44:34.892Z,1.00
2018-07-03T07:46:39.780Z,1.40
2018-07-03T07:48:44.021Z,1.07
2018-07-03T07:50:48.850Z,1.53
2018-07-03T07:52:54.912Z,1.07
2018-07-03T07:55:05.814Z,1.03
2018-07-03T07:57:10.708Z,1.37
2018-07-03T07:59:15.283Z,1.37
2018-07-03T08:01:19.425Z,1.00
2018-07-03T08:03:23.487Z,1.40
2018-07-03T08:05:27.717Z,1.07
2018-07-03T08:07:34.024Z,1.10
2018-07-03T08:09:39.324Z,1.40
2018-07-03T08:11:44.132Z,1.20
2018-07-03T08:13:48.779Z,1.50
2018-07-03T08:15:56.542Z,1.10
2018-07-03T08:20:23.234Z,1.20
